createdAt,value
2018-07-23T00:00:19.111Z,95.17
2018-07-23T00:01:19.124Z,95.36
2018-07-23T00:02:19.148Z,95.36
2018-07-23T00:03:19.174Z,95.40
2018-07-23T00:04:19.204Z,95.26
2018-07-23T00:05:19.228Z,95.31
2018-07-23T00:06:19.243Z,95.31
2018-07-23T00:07:19.269Z,95.31
2018-07-23T00:08:19.294Z,95.31
2018-07-23T00:09:19.318Z,95.31
2018-07-23T00:10:19.331Z,95.31
2018-07-23T00:11:19.370Z,95.50
2018-07-23T00:12:19.382Z,95.89
2018-07-23T00:13:19.408Z,95.50
2018-07-23T00:14:19.422Z,95.79
2018-07-23T00:15:19.449Z,95.89
2018-07-23T00:16:19.476Z,95.70
2018-07-23T00:17:19.503Z,95.31
2018-07-23T00:18:19.516Z,95.79
2018-07-23T00:19:19.544Z,95.70
2018-07-23T00:20:19.566Z,95.79
2018-07-23T00:21:19.603Z,95.50
2018-07-23T00:22:19.617Z,95.60
2018-07-23T00:23:19.631Z,95.70
2018-07-23T00:24:19.658Z,95.50
2018-07-23T00:25:19.684Z,95.50
2018-07-23T00:26:19.711Z,95.60
2018-07-23T00:27:19.723Z,96.08
2018-07-23T00:28:19.748Z,96.17
2018-07-23T00:29:19.773Z,95.89
2018-07-23T00:30:19.799Z,96.08
2018-07-23T00:31:19.813Z,96.47
2018-07-23T00:32:19.841Z,96.08
2018-07-23T00:33:19.867Z,96.80
2018-07-23T00:34:19.894Z,96.22
2018-07-23T00:35:19.905Z,96.51
2018-07-23T00:36:19.929Z,96.75
2018-07-23T00:37:19.957Z,96.37
2018-07-23T00:38:19.982Z,96.22
2018-07-23T00:39:19.995Z,96.32
2018-07-23T00:40:20.025Z,96.13
2018-07-23T00:41:20.049Z,96.13
2018-07-23T00:42:20.078Z,96.80
2018-07-23T00:43:20.093Z,96.89
2018-07-23T00:44:20.120Z,96.42
2018-07-23T00:45:20.140Z,96.70
2018-07-23T00:46:20.166Z,96.89
2018-07-23T00:47:20.180Z,96.22
2018-07-23T00:48:20.204Z,96.89
2018-07-23T00:49:20.232Z,96.70
2018-07-23T00:50:20.255Z,97.19
2018-07-23T00:51:20.268Z,96.99
2018-07-23T00:52:20.311Z,96.42
2018-07-23T00:53:20.322Z,96.42
2018-07-23T00:54:20.349Z,96.51
2018-07-23T00:55:20.370Z,97.09
2018-07-23T00:56:20.386Z,96.32
2018-07-23T00:57:20.412Z,97.19
2018-07-23T00:58:20.439Z,96.89
2018-07-23T00:59:20.453Z,96.99
2018-07-23T01:00:20.477Z,97.19
2018-07-23T01:01:20.503Z,96.47
2018-07-23T01:02:20.529Z,96.89
2018-07-23T01:03:20.543Z,96.99
2018-07-23T01:04:20.571Z,97.14
2018-07-23T01:05:20.597Z,97.04
2018-07-23T01:06:20.923Z,97.61
2018-07-23T01:07:20.636Z,97.33
2018-07-23T01:08:20.661Z,97.33
2018-07-23T01:09:20.690Z,97.52
2018-07-23T01:10:20.700Z,97.14
2018-07-23T01:11:20.725Z,97.42
2018-07-23T01:12:20.754Z,97.52
2018-07-23T01:13:20.780Z,97.24
2018-07-23T01:14:20.792Z,97.33
2018-07-23T01:15:20.818Z,97.33
2018-07-23T01:16:20.846Z,97.24
2018-07-23T01:17:20.871Z,97.14
2018-07-23T01:18:20.884Z,97.24
2018-07-23T01:19:20.910Z,97.14
2018-07-23T01:20:20.934Z,97.42
2018-07-23T01:21:20.960Z,97.42
2018-07-23T01:22:20.973Z,97.42
2018-07-23T01:23:21.014Z,97.71
2018-07-23T01:24:21.027Z,98.10
2018-07-23T01:25:21.042Z,97.33
2018-07-23T01:26:21.067Z,97.91
2018-07-23T01:27:21.093Z,97.52
2018-07-23T01:28:21.117Z,97.81
2018-07-23T01:29:21.130Z,97.91
2018-07-23T01:30:21.157Z,97.71
2018-07-23T01:31:21.181Z,97.81
2018-07-23T01:32:21.207Z,97.81
2018-07-23T01:33:21.221Z,97.81
2018-07-23T01:34:21.247Z,97.91
2018-07-23T01:35:21.273Z,97.81
2018-07-23T01:36:21.288Z,97.81
2018-07-23T01:37:21.316Z,97.91
2018-07-23T01:38:21.340Z,97.91
2018-07-23T01:39:21.366Z,98.00
2018-07-23T01:40:21.378Z,97.81
2018-07-23T01:41:21.405Z,97.81
2018-07-23T01:42:21.431Z,98.10
2018-07-23T01:43:21.457Z,97.71
2018-07-23T01:44:21.471Z,98.48
2018-07-23T01:45:21.504Z,98.48
2018-07-23T01:46:21.535Z,98.38
2018-07-23T01:47:21.540Z,98.05
2018-07-23T01:48:21.564Z,98.10
2018-07-23T01:49:21.589Z,98.00
2018-07-23T01:50:21.615Z,98.00
2018-07-23T01:51:21.627Z,98.00
2018-07-23T01:52:21.651Z,97.86
2018-07-23T01:53:21.690Z,98.00
2018-07-23T01:54:21.719Z,98.24
2018-07-23T01:55:21.717Z,98.33
2018-07-23T01:56:21.745Z,98.48
2018-07-23T01:57:21.771Z,98.14
2018-07-23T01:58:21.788Z,98.24
2018-07-23T01:59:21.810Z,98.33
2018-07-23T02:00:21.833Z,98.48
2018-07-23T02:01:21.861Z,98.43
2018-07-23T02:02:21.875Z,98.33
2018-07-23T02:03:21.900Z,98.77
2018-07-23T02:04:21.927Z,98.67
2018-07-23T02:05:21.939Z,99.15
2018-07-23T02:06:21.977Z,98.72
2018-07-23T02:07:21.991Z,99.15
2018-07-23T02:08:22.020Z,99.05
2018-07-23T02:09:22.033Z,99.15
2018-07-23T02:10:22.059Z,99.39
2018-07-23T02:11:22.085Z,99.58
2018-07-23T02:12:22.096Z,99.20
2018-07-23T02:13:22.122Z,98.77
2018-07-23T02:14:22.148Z,98.77
2018-07-23T02:15:22.173Z,99.34
2018-07-23T02:16:22.189Z,99.29
2018-07-23T02:17:22.215Z,99.10
2018-07-23T02:18:22.280Z,99.29
2018-07-23T02:19:22.255Z,99.29
2018-07-23T02:20:22.280Z,99.29
2018-07-23T02:21:22.306Z,99.39
2018-07-23T02:22:22.332Z,99.39
2018-07-23T02:23:22.346Z,99.49
2018-07-23T02:24:22.371Z,99.77
2018-07-23T02:25:22.397Z,99.68
2018-07-23T02:26:22.409Z,99.39
2018-07-23T02:27:22.450Z,99.49
2018-07-23T02:28:22.463Z,99.39
2018-07-23T02:29:22.501Z,99.29
2018-07-23T02:30:22.505Z,99.68
2018-07-23T02:31:22.529Z,99.29
2018-07-23T02:32:22.553Z,99.96
2018-07-23T02:33:22.566Z,99.58
2018-07-23T02:34:22.593Z,99.39
2018-07-23T02:35:22.618Z,99.96
2018-07-23T02:36:22.635Z,99.87
2018-07-23T02:37:22.659Z,99.77
2018-07-23T02:38:22.686Z,99.77
2018-07-23T02:39:22.712Z,99.49
2018-07-23T02:40:22.722Z,99.77
2018-07-23T02:41:22.748Z,99.68
2018-07-23T02:42:22.787Z,99.58
2018-07-23T02:43:22.789Z,99.77
2018-07-23T02:44:22.817Z,99.68
2018-07-23T02:45:22.842Z,99.77
2018-07-23T02:46:22.856Z,99.68
2018-07-23T02:47:22.881Z,99.77
2018-07-23T02:48:22.908Z,99.87
2018-07-23T02:49:22.932Z,99.58
2018-07-23T02:50:22.945Z,99.87
2018-07-23T02:51:22.971Z,99.49
2018-07-23T02:52:22.997Z,99.49
2018-07-23T02:53:23.010Z,99.77
2018-07-23T02:54:23.036Z,99.77
2018-07-23T02:55:23.061Z,99.87
2018-07-23T02:56:23.078Z,99.87
2018-07-23T02:57:23.104Z,99.68
2018-07-23T02:58:23.129Z,99.58
2018-07-23T02:59:23.156Z,99.87
2018-07-23T03:00:23.181Z,99.58
2018-07-23T03:01:23.193Z,99.99
2018-07-23T03:02:23.219Z,99.99
2018-07-23T03:03:23.232Z,99.99
2018-07-23T03:04:23.265Z,99.99
2018-07-23T03:05:23.287Z,99.99
2018-07-23T03:06:23.299Z,99.96
2018-07-23T03:07:23.325Z,99.77
2018-07-23T03:08:23.351Z,99.99
2018-07-23T03:09:23.367Z,99.99
2018-07-23T03:10:23.390Z,99.99
2018-07-23T03:11:23.420Z,99.77
2018-07-23T03:12:23.428Z,99.99
2018-07-23T03:13:23.456Z,99.99
2018-07-23T03:14:23.481Z,99.99
2018-07-23T03:15:23.505Z,99.99
2018-07-23T03:16:23.523Z,99.99
2018-07-23T03:17:23.547Z,99.58
2018-07-23T03:18:23.574Z,99.87
2018-07-23T03:19:23.590Z,99.77
2018-07-23T03:20:23.610Z,99.99
2018-07-23T03:21:23.638Z,99.99
2018-07-23T03:22:23.651Z,99.96
2018-07-23T03:23:23.680Z,99.99
2018-07-23T03:24:23.703Z,99.99
2018-07-23T03:25:23.729Z,99.99
2018-07-23T03:26:23.754Z,99.96
2018-07-23T03:27:23.768Z,99.99
2018-07-23T03:28:23.794Z,99.99
2018-07-23T03:29:23.813Z,99.99
2018-07-23T03:30:23.862Z,99.99
2018-07-23T03:31:23.867Z,99.99
2018-07-23T03:32:23.871Z,99.99
2018-07-23T03:33:23.911Z,99.99
2018-07-23T03:34:23.924Z,99.99
2018-07-23T03:35:23.938Z,99.99
2018-07-23T03:36:23.967Z,99.99
2018-07-23T03:37:23.992Z,99.99
2018-07-23T03:38:24.018Z,99.99
2018-07-23T03:39:24.031Z,99.99
2018-07-23T03:40:24.056Z,99.99
2018-07-23T03:41:24.083Z,99.99
2018-07-23T03:42:24.100Z,99.96
2018-07-23T03:43:24.124Z,99.99
2018-07-23T03:44:24.146Z,99.99
2018-07-23T03:45:24.164Z,99.99
2018-07-23T03:46:24.198Z,99.99
2018-07-23T03:47:24.211Z,99.99
2018-07-23T03:48:24.229Z,99.91
2018-07-23T03:49:24.254Z,99.99
2018-07-23T03:50:24.279Z,99.99
2018-07-23T03:51:24.307Z,99.87
2018-07-23T03:52:24.317Z,99.99
2018-07-23T03:53:24.343Z,99.99
2018-07-23T03:54:24.369Z,99.99
2018-07-23T03:55:24.393Z,99.96
2018-07-23T03:56:24.408Z,99.87
2018-07-23T03:57:24.437Z,99.99
2018-07-23T03:58:24.448Z,99.77
2018-07-23T03:59:24.473Z,99.99
2018-07-23T04:00:24.500Z,99.99
2018-07-23T04:01:24.521Z,99.99
2018-07-23T04:02:24.540Z,99.99
2018-07-23T04:03:24.580Z,99.87
2018-07-23T04:04:24.590Z,99.96
2018-07-23T04:05:24.603Z,99.87
2018-07-23T04:06:24.632Z,99.99
2018-07-23T04:07:24.655Z,99.99
2018-07-23T04:08:24.672Z,99.99
2018-07-23T04:09:24.697Z,99.99
2018-07-23T04:10:24.723Z,99.99
2018-07-23T04:11:24.737Z,99.99
2018-07-23T04:12:24.762Z,99.99
2018-07-23T04:13:24.788Z,99.96
2018-07-23T04:14:24.814Z,99.99
2018-07-23T04:15:24.828Z,99.99
2018-07-23T04:16:24.855Z,99.99
2018-07-23T04:17:24.920Z,99.99
2018-07-23T04:18:24.890Z,99.77
2018-07-23T04:19:24.943Z,99.99
2018-07-23T04:20:24.945Z,99.99
2018-07-23T04:21:24.960Z,99.99
2018-07-23T04:22:24.985Z,99.99
2018-07-23T04:23:25.012Z,99.99
2018-07-23T04:24:25.035Z,99.68
2018-07-23T04:25:25.049Z,99.99
2018-07-23T04:26:25.074Z,99.99
2018-07-23T04:27:25.101Z,99.99
2018-07-23T04:28:25.115Z,99.99
2018-07-23T04:29:25.140Z,99.99
2018-07-23T04:30:25.165Z,99.99
2018-07-23T04:31:25.191Z,99.99
2018-07-23T04:32:25.209Z,99.99
2018-07-23T04:33:25.233Z,99.68
2018-07-23T04:34:25.258Z,99.68
2018-07-23T04:35:25.272Z,99.87
2018-07-23T04:36:25.296Z,99.58
2018-07-23T04:37:25.321Z,99.68
2018-07-23T04:38:25.337Z,99.99
2018-07-23T04:39:25.362Z,99.96
2018-07-23T04:40:25.388Z,99.99
2018-07-23T04:41:25.415Z,99.99
2018-07-23T04:42:25.441Z,99.87
2018-07-23T04:43:25.455Z,99.68
2018-07-23T04:44:25.483Z,99.87
2018-07-23T04:45:25.492Z,99.49
2018-07-23T04:46:25.517Z,99.96
2018-07-23T04:47:25.544Z,99.87
2018-07-23T04:48:25.571Z,99.87
2018-07-23T04:49:25.656Z,99.87
2018-07-23T04:50:25.612Z,99.99
2018-07-23T04:51:25.641Z,99.77
2018-07-23T04:52:25.648Z,99.87
2018-07-23T04:53:25.675Z,99.68
2018-07-23T04:54:25.700Z,99.73
2018-07-23T04:55:25.726Z,99.77
2018-07-23T04:56:25.743Z,99.99
2018-07-23T04:57:25.768Z,99.99
2018-07-23T04:58:25.794Z,99.99
2018-07-23T04:59:25.821Z,99.77
2018-07-23T05:00:25.834Z,99.68
2018-07-23T05:01:25.859Z,99.96
2018-07-23T05:02:25.885Z,99.92
2018-07-23T05:03:25.900Z,99.99
2018-07-23T05:04:25.923Z,99.92
2018-07-23T05:05:25.949Z,99.92
2018-07-23T05:06:25.975Z,99.54
2018-07-23T05:07:25.987Z,99.99
2018-07-23T05:08:26.015Z,99.54
2018-07-23T05:09:26.042Z,99.99
2018-07-23T05:10:26.067Z,99.63
2018-07-23T05:11:26.082Z,99.44
2018-07-23T05:12:26.109Z,99.92
2018-07-23T05:13:26.132Z,99.15
2018-07-23T05:14:26.145Z,99.34
2018-07-23T05:15:26.170Z,99.34
2018-07-23T05:16:26.200Z,99.25
2018-07-23T05:17:26.223Z,99.44
2018-07-23T05:18:26.237Z,99.34
2018-07-23T05:19:26.262Z,99.05
2018-07-23T05:20:26.290Z,99.54
2018-07-23T05:21:26.316Z,99.05
2018-07-23T05:22:26.329Z,99.05
2018-07-23T05:23:26.355Z,99.25
2018-07-23T05:24:26.429Z,99.34
2018-07-23T05:25:26.404Z,99.40
2018-07-23T05:26:26.418Z,99.40
2018-07-23T05:27:26.444Z,98.82
2018-07-23T05:28:26.474Z,98.91
2018-07-23T05:29:26.499Z,98.91
2018-07-23T05:30:26.511Z,98.91
2018-07-23T05:31:26.537Z,98.72
2018-07-23T05:32:26.602Z,98.91
2018-07-23T05:33:26.590Z,98.72
2018-07-23T05:34:26.614Z,98.72
2018-07-23T05:35:26.629Z,98.82
2018-07-23T05:36:26.653Z,98.72
2018-07-23T05:37:26.678Z,98.58
2018-07-23T05:38:26.708Z,98.29
2018-07-23T05:39:26.718Z,98.48
2018-07-23T05:40:26.745Z,98.29
2018-07-23T05:41:26.772Z,98.19
2018-07-23T05:42:26.810Z,98.10
2018-07-23T05:43:26.811Z,97.91
2018-07-23T05:44:26.838Z,97.71
2018-07-23T05:45:26.861Z,98.00
2018-07-23T05:46:26.887Z,97.86
2018-07-23T05:47:26.915Z,97.47
2018-07-23T05:48:26.925Z,97.47
2018-07-23T05:49:26.952Z,97.67
2018-07-23T05:50:26.978Z,97.67
2018-07-23T05:51:27.006Z,97.86
2018-07-23T05:52:27.019Z,97.57
2018-07-23T05:53:27.046Z,97.28
2018-07-23T05:54:27.072Z,97.38
2018-07-23T05:55:27.097Z,97.09
2018-07-23T05:56:27.130Z,96.70
2018-07-23T05:57:27.135Z,96.61
2018-07-23T05:58:27.174Z,96.80
2018-07-23T05:59:27.187Z,96.85
2018-07-23T06:00:27.218Z,96.85
2018-07-23T06:01:27.241Z,96.47
2018-07-23T06:02:27.266Z,95.98
2018-07-23T06:03:27.281Z,96.27
2018-07-23T06:04:27.307Z,96.17
2018-07-23T06:05:27.331Z,95.70
2018-07-23T06:06:27.412Z,96.17
2018-07-23T06:07:27.383Z,95.79
2018-07-23T06:08:27.398Z,95.70
2018-07-23T06:09:27.420Z,96.17
2018-07-23T06:10:27.446Z,95.40
2018-07-23T06:11:27.485Z,95.74
2018-07-23T06:12:27.500Z,95.07
2018-07-23T06:13:27.583Z,95.65
2018-07-23T06:14:27.541Z,94.97
2018-07-23T06:15:27.569Z,95.07
2018-07-23T06:16:27.591Z,94.87
2018-07-23T06:17:27.620Z,95.07
2018-07-23T06:18:27.642Z,94.73
2018-07-23T06:19:27.668Z,94.92
2018-07-23T06:20:27.681Z,95.12
2018-07-23T06:21:27.707Z,94.44
2018-07-23T06:22:27.732Z,94.64
2018-07-23T06:23:27.759Z,94.34
2018-07-23T06:24:27.789Z,94.64
2018-07-23T06:25:27.815Z,94.20
2018-07-23T06:26:27.839Z,94.25
2018-07-23T06:27:27.853Z,94.01
2018-07-23T06:28:27.881Z,94.01
2018-07-23T06:29:27.903Z,93.33
2018-07-23T06:30:27.979Z,93.52
2018-07-23T06:31:27.955Z,93.72
2018-07-23T06:32:27.982Z,93.72
2018-07-23T06:33:28.009Z,93.14
2018-07-23T06:34:28.035Z,93.72
2018-07-23T06:35:28.050Z,93.48
2018-07-23T06:36:28.073Z,93.66
2018-07-23T06:37:28.101Z,93.38
2018-07-23T06:38:28.125Z,93.19
2018-07-23T06:39:28.165Z,92.80
2018-07-23T06:40:28.175Z,92.85
2018-07-23T06:41:28.202Z,91.98
2018-07-23T06:42:28.229Z,92.17
2018-07-23T06:43:28.255Z,91.69
2018-07-23T06:44:28.285Z,91.64
2018-07-23T06:45:28.307Z,90.87
2018-07-23T06:46:28.366Z,91.06
2018-07-23T06:47:28.359Z,90.43
2018-07-23T06:48:28.396Z,90.53
2018-07-23T06:49:28.410Z,90.53
2018-07-23T06:50:28.435Z,90.19
2018-07-23T06:51:28.460Z,89.79
2018-07-23T06:52:28.489Z,89.65
2018-07-23T06:53:28.514Z,89.11
2018-07-23T06:54:28.557Z,89.01
2018-07-23T06:55:28.566Z,87.81
2018-07-23T06:56:28.605Z,87.71
2018-07-23T06:57:28.703Z,87.27
2018-07-23T06:58:28.655Z,86.30
2018-07-23T06:59:28.686Z,85.66
2018-07-23T07:00:28.715Z,85.28
2018-07-23T07:01:28.760Z,84.83
2018-07-23T07:02:28.787Z,85.03
2018-07-23T07:03:28.800Z,83.13
2018-07-23T07:04:28.823Z,83.13
2018-07-23T07:05:28.862Z,82.30
2018-07-23T07:06:28.926Z,81.91
2018-07-23T07:07:28.917Z,81.52
2018-07-23T07:08:28.951Z,80.98
2018-07-23T07:09:28.978Z,79.63
2018-07-23T07:10:29.004Z,78.66
2018-07-23T07:11:29.044Z,78.79
2018-07-23T07:12:29.071Z,78.31
2018-07-23T07:13:29.142Z,77.62
2018-07-23T07:14:29.134Z,77.76
2018-07-23T07:15:29.173Z,77.67
2018-07-23T07:16:29.198Z,77.37
2018-07-23T07:17:29.234Z,77.28
2018-07-23T07:18:29.261Z,76.79
2018-07-23T07:19:29.287Z,77.02
2018-07-23T07:20:29.328Z,75.62
2018-07-23T07:21:29.357Z,74.65
2018-07-23T07:22:29.392Z,74.50
2018-07-23T07:23:29.432Z,74.69
2018-07-23T07:24:29.458Z,73.95
2018-07-23T07:25:29.498Z,74.24
2018-07-23T07:26:29.521Z,73.95
2018-07-23T07:27:29.547Z,73.37
2018-07-23T07:28:29.584Z,73.56
2018-07-23T07:29:29.623Z,72.78
2018-07-23T07:30:29.661Z,72.04
2018-07-23T07:31:29.687Z,70.68
2018-07-23T07:32:29.715Z,70.20
2018-07-23T07:33:29.753Z,69.51
2018-07-23T07:34:29.779Z,69.22
2018-07-23T07:35:29.821Z,69.03
2018-07-23T07:36:29.843Z,69.35
2018-07-23T07:37:29.881Z,69.32
2018-07-23T07:38:29.919Z,68.87
2018-07-23T07:39:29.944Z,69.26
2018-07-23T07:40:29.982Z,69.35
2018-07-23T07:41:30.009Z,69.13
2018-07-23T07:42:30.051Z,68.67
2018-07-23T07:43:30.085Z,68.67
2018-07-23T07:44:30.114Z,68.57
2018-07-23T07:45:30.154Z,67.80
2018-07-23T07:46:30.195Z,66.44
2018-07-23T07:47:30.216Z,64.88
2018-07-23T07:48:30.253Z,65.75
2018-07-23T07:49:30.290Z,65.75
2018-07-23T07:50:30.318Z,66.47
2018-07-23T07:51:30.356Z,66.47
2018-07-23T07:52:30.397Z,66.56
2018-07-23T07:53:30.422Z,66.17
2018-07-23T07:54:30.460Z,66.76
2018-07-23T07:55:30.498Z,66.50
2018-07-23T07:56:30.523Z,66.41
2018-07-23T07:57:30.561Z,66.69
2018-07-23T07:58:30.600Z,66.63
2018-07-23T07:59:30.640Z,65.85
2018-07-23T08:00:30.670Z,65.95
2018-07-23T08:01:30.705Z,65.17
2018-07-23T08:02:30.745Z,64.78
2018-07-23T08:03:30.782Z,63.84
2018-07-23T08:04:30.819Z,63.81
2018-07-23T08:05:30.846Z,63.45
2018-07-23T08:06:30.896Z,63.15
2018-07-23T08:07:30.922Z,62.08
2018-07-23T08:08:30.962Z,61.79
2018-07-23T08:09:30.990Z,61.69
2018-07-23T08:10:31.027Z,61.89
2018-07-23T08:11:31.065Z,62.08
2018-07-23T08:12:31.122Z,61.89
2018-07-23T08:13:31.141Z,61.60
2018-07-23T08:14:31.167Z,61.60
2018-07-23T08:15:31.206Z,60.62
2018-07-23T08:16:31.242Z,61.01
2018-07-23T08:17:31.281Z,61.11
2018-07-23T08:18:31.319Z,61.01
2018-07-23T08:19:31.358Z,60.82
2018-07-23T08:20:31.386Z,61.11
2018-07-23T08:21:31.424Z,61.69
2018-07-23T08:22:31.464Z,61.89
2018-07-23T08:23:31.501Z,62.18
2018-07-23T08:24:31.538Z,62.28
2018-07-23T08:25:31.575Z,62.08
2018-07-23T08:26:31.614Z,61.50
2018-07-23T08:27:31.641Z,61.30
2018-07-23T08:28:31.679Z,61.50
2018-07-23T08:29:31.718Z,61.21
2018-07-23T08:30:31.756Z,60.82
2018-07-23T08:31:31.801Z,60.88
2018-07-23T08:32:31.834Z,61.08
2018-07-23T08:33:31.879Z,61.37
2018-07-23T08:34:31.912Z,60.69
2018-07-23T08:35:31.937Z,61.27
2018-07-23T08:36:31.975Z,61.27
2018-07-23T08:37:32.012Z,61.79
2018-07-23T08:38:32.054Z,61.89
2018-07-23T08:39:32.105Z,61.79
2018-07-23T08:40:32.129Z,60.91
2018-07-23T08:41:32.380Z,60.91
2018-07-23T08:42:32.207Z,60.72
2018-07-23T08:43:32.233Z,60.42
2018-07-23T08:44:32.270Z,60.30
2018-07-23T08:45:32.312Z,60.69
2018-07-23T08:46:32.347Z,60.78
2018-07-23T08:47:32.387Z,60.98
2018-07-23T08:48:32.454Z,61.18
2018-07-23T08:49:32.463Z,61.27
2018-07-23T08:50:32.490Z,60.59
2018-07-23T08:51:32.526Z,60.59
2018-07-23T08:52:32.553Z,61.08
2018-07-23T08:53:32.592Z,59.98
2018-07-23T08:54:32.629Z,60.27
2018-07-23T08:55:32.656Z,60.46
2018-07-23T08:56:32.694Z,60.46
2018-07-23T08:57:32.731Z,60.36
2018-07-23T08:58:32.759Z,60.56
2018-07-23T08:59:32.795Z,60.75
2018-07-23T09:00:32.836Z,60.85
2018-07-23T09:01:32.861Z,60.66
2018-07-23T09:02:32.902Z,60.56
2018-07-23T09:03:32.952Z,60.56
2018-07-23T09:04:32.963Z,60.17
2018-07-23T09:05:33.002Z,60.17
2018-07-23T09:06:33.040Z,60.17
2018-07-23T09:07:33.066Z,59.78
2018-07-23T09:08:33.176Z,59.10
2018-07-23T09:09:33.144Z,58.91
2018-07-23T09:10:33.186Z,58.32
2018-07-23T09:11:33.210Z,58.32
2018-07-23T09:12:33.245Z,59.20
2018-07-23T09:13:33.273Z,58.81
2018-07-23T09:14:33.311Z,58.51
2018-07-23T09:15:33.348Z,58.42
2018-07-23T09:16:33.388Z,58.94
2018-07-23T09:17:33.415Z,59.03
2018-07-23T09:18:33.454Z,58.42
2018-07-23T09:19:33.491Z,58.32
2018-07-23T09:20:33.519Z,59.62
2018-07-23T09:21:33.557Z,60.30
2018-07-23T09:22:33.596Z,59.33
2018-07-23T09:23:33.633Z,59.33
2018-07-23T09:24:33.670Z,58.84
2018-07-23T09:25:33.700Z,58.67
2018-07-23T09:26:33.734Z,58.28
2018-07-23T09:27:33.772Z,58.09
2018-07-23T09:28:33.812Z,58.22
2018-07-23T09:29:33.839Z,57.43
2018-07-23T09:30:33.878Z,58.02
2018-07-23T09:31:33.929Z,57.92
2018-07-23T09:32:33.960Z,57.73
2018-07-23T09:33:33.993Z,58.63
2018-07-23T09:34:34.031Z,58.44
2018-07-23T09:35:34.058Z,57.63
2018-07-23T09:36:34.093Z,57.17
2018-07-23T09:37:34.132Z,57.75
2018-07-23T09:38:34.173Z,57.95
2018-07-23T09:39:34.196Z,57.85
2018-07-23T09:40:34.237Z,57.17
2018-07-23T09:41:34.274Z,57.29
2018-07-23T09:42:34.314Z,57.17
2018-07-23T09:43:34.341Z,57.17
2018-07-23T09:44:34.391Z,56.68
2018-07-23T09:45:34.420Z,56.71
2018-07-23T09:46:34.458Z,57.20
2018-07-23T09:47:34.479Z,56.87
2018-07-23T09:48:34.521Z,56.61
2018-07-23T09:49:34.556Z,56.51
2018-07-23T09:50:34.594Z,56.41
2018-07-23T09:51:34.620Z,56.74
2018-07-23T09:52:34.667Z,55.86
2018-07-23T09:53:34.700Z,56.32
2018-07-23T09:54:34.725Z,56.74
2018-07-23T09:55:34.763Z,56.64
2018-07-23T09:56:34.801Z,56.71
2018-07-23T09:57:34.826Z,56.54
2018-07-23T09:58:34.864Z,55.86
2018-07-23T09:59:34.906Z,55.86
2018-07-23T10:00:34.936Z,55.96
2018-07-23T10:01:34.969Z,55.10
2018-07-23T10:02:35.008Z,55.10
2018-07-23T10:03:35.120Z,54.91
2018-07-23T10:04:35.073Z,55.20
2018-07-23T10:05:35.110Z,55.10
2018-07-23T10:06:35.148Z,55.10
2018-07-23T10:07:35.188Z,55.10
2018-07-23T10:08:35.211Z,55.30
2018-07-23T10:09:35.249Z,55.00
2018-07-23T10:10:35.288Z,54.74
2018-07-23T10:11:35.329Z,54.64
2018-07-23T10:12:35.367Z,55.22
2018-07-23T10:13:35.409Z,55.26
2018-07-23T10:14:35.445Z,55.45
2018-07-23T10:15:35.486Z,54.11
2018-07-23T10:16:35.519Z,54.01
2018-07-23T10:17:35.557Z,53.35
2018-07-23T10:18:35.608Z,52.86
2018-07-23T10:19:35.634Z,53.06
2018-07-23T10:20:35.673Z,52.96
2018-07-23T10:21:35.724Z,53.06
2018-07-23T10:22:35.750Z,52.86
2018-07-23T10:23:35.789Z,53.08
2018-07-23T10:24:35.843Z,53.18
2018-07-23T10:25:35.880Z,52.98
2018-07-23T10:26:35.918Z,53.01
2018-07-23T10:27:35.957Z,52.33
2018-07-23T10:28:35.992Z,51.66
2018-07-23T10:29:36.097Z,51.17
2018-07-23T10:30:36.086Z,50.81
2018-07-23T10:31:36.121Z,50.12
2018-07-23T10:32:36.162Z,50.04
2018-07-23T10:33:36.200Z,49.65
2018-07-23T10:34:36.239Z,49.16
2018-07-23T10:35:36.295Z,49.19
2018-07-23T10:36:36.327Z,48.79
2018-07-23T10:37:36.367Z,48.11
2018-07-23T10:38:36.404Z,47.71
2018-07-23T10:39:36.455Z,48.33
2018-07-23T10:40:36.493Z,48.03
2018-07-23T10:41:36.530Z,47.64
2018-07-23T10:42:36.570Z,47.56
2018-07-23T10:43:36.619Z,47.86
2018-07-23T10:44:36.660Z,47.29
2018-07-23T10:45:36.700Z,46.90
2018-07-23T10:46:36.750Z,46.92
2018-07-23T10:47:36.791Z,47.12
2018-07-23T10:48:36.824Z,46.72
2018-07-23T10:49:36.866Z,46.23
2018-07-23T10:50:36.913Z,45.67
2018-07-23T10:51:36.953Z,45.27
2018-07-23T10:52:36.991Z,45.59
2018-07-23T10:53:37.044Z,45.59
2018-07-23T10:54:37.081Z,45.49
2018-07-23T10:55:37.119Z,45.49
2018-07-23T10:56:37.171Z,45.96
2018-07-23T10:57:37.212Z,46.35
2018-07-23T10:58:37.251Z,46.53
2018-07-23T10:59:37.299Z,46.94
2018-07-23T11:00:37.336Z,46.72
2018-07-23T11:01:37.375Z,46.55
2018-07-23T11:02:37.412Z,46.94
2018-07-23T11:03:37.471Z,47.04
2018-07-23T11:04:37.504Z,46.55
2018-07-23T11:05:37.543Z,46.06
2018-07-23T11:06:37.594Z,46.45
2018-07-23T11:07:37.633Z,46.25
2018-07-23T11:08:37.669Z,45.98
2018-07-23T11:09:37.708Z,45.98
2018-07-23T11:10:37.758Z,46.00
2018-07-23T11:11:37.803Z,44.82
2018-07-23T11:12:37.869Z,44.33
2018-07-23T11:13:37.888Z,44.33
2018-07-23T11:14:37.927Z,44.72
2018-07-23T11:15:37.964Z,45.04
2018-07-23T11:16:38.001Z,44.74
2018-07-23T11:17:38.055Z,44.74
2018-07-23T11:19:38.154Z,44.45
2018-07-23T11:20:38.180Z,44.84
2018-07-23T11:21:38.224Z,44.27
2018-07-23T11:22:38.259Z,43.98
2018-07-23T11:23:38.310Z,44.27
2018-07-23T11:24:45.351Z,44.47
2018-07-23T11:25:39.635Z,44.37
2018-07-23T11:26:38.488Z,44.10
2018-07-23T11:27:38.477Z,43.80
2018-07-23T11:28:38.516Z,43.68
2018-07-23T11:29:38.616Z,43.38
2018-07-23T11:30:38.602Z,43.66
2018-07-23T11:31:38.642Z,44.06
2018-07-23T11:32:38.681Z,44.45
2018-07-23T11:33:38.732Z,44.33
2018-07-23T11:34:38.774Z,43.64
2018-07-23T11:35:38.809Z,42.83
2018-07-23T11:36:38.888Z,43.42
2018-07-23T11:37:38.897Z,44.01
2018-07-23T11:38:38.934Z,44.03
2018-07-23T11:39:38.977Z,44.01
2018-07-23T11:40:39.025Z,44.40
2018-07-23T11:41:39.090Z,45.02
2018-07-23T11:42:39.113Z,44.72
2018-07-23T11:43:39.142Z,44.72
2018-07-23T11:44:39.191Z,43.93
2018-07-23T11:45:39.232Z,44.33
2018-07-23T11:46:39.269Z,44.33
2018-07-23T11:47:39.321Z,43.96
2018-07-23T11:48:39.359Z,44.25
2018-07-23T11:49:39.408Z,44.06
2018-07-23T11:50:39.477Z,43.86
2018-07-23T11:51:39.485Z,44.35
2018-07-23T11:52:39.523Z,44.33
2018-07-23T11:53:39.580Z,43.86
2018-07-23T11:54:39.620Z,44.25
2018-07-23T11:55:39.653Z,43.76
2018-07-23T11:56:39.738Z,43.68
2018-07-23T11:57:39.730Z,43.56
2018-07-23T11:58:39.769Z,43.56
2018-07-23T11:59:39.824Z,43.56
2018-07-23T12:00:39.858Z,43.76
2018-07-23T12:01:39.903Z,43.86
2018-07-23T12:02:39.946Z,44.13
2018-07-23T12:03:39.984Z,43.54
2018-07-23T12:04:40.109Z,43.93
2018-07-23T12:05:40.068Z,44.33
2018-07-23T12:06:40.103Z,44.03
2018-07-23T12:07:40.141Z,43.86
2018-07-23T12:08:40.205Z,44.15
2018-07-23T12:09:40.230Z,44.06
2018-07-23T12:10:40.266Z,43.78
2018-07-23T12:11:40.305Z,43.41
2018-07-23T12:12:40.356Z,42.82
2018-07-23T12:13:40.394Z,42.82
2018-07-23T12:14:40.433Z,43.03
2018-07-23T12:15:40.472Z,42.93
2018-07-23T12:16:40.535Z,42.54
2018-07-23T12:17:40.640Z,42.34
2018-07-23T12:18:40.601Z,42.54
2018-07-23T12:19:40.640Z,42.14
2018-07-23T12:20:40.690Z,42.24
2018-07-23T12:21:40.727Z,41.85
2018-07-23T12:22:40.767Z,42.44
2018-07-23T12:23:40.805Z,41.77
2018-07-23T12:24:40.854Z,42.16
2018-07-23T12:25:40.896Z,42.07
2018-07-23T12:26:40.934Z,41.77
2018-07-23T12:27:40.984Z,41.57
2018-07-23T12:28:41.023Z,41.28
2018-07-23T12:29:41.062Z,41.75
2018-07-23T12:30:41.102Z,42.14
2018-07-23T12:31:41.151Z,41.83
2018-07-23T12:32:41.189Z,42.02
2018-07-23T12:33:41.228Z,42.13
2018-07-23T12:34:41.265Z,42.52
2018-07-23T12:35:41.317Z,42.72
2018-07-23T12:36:41.358Z,41.73
2018-07-23T12:37:41.395Z,41.93
2018-07-23T12:38:41.440Z,42.22
2018-07-23T12:39:41.554Z,42.02
2018-07-23T12:40:41.522Z,42.13
2018-07-23T12:41:41.561Z,42.02
2018-07-23T12:42:41.598Z,41.83
2018-07-23T12:43:41.636Z,42.13
2018-07-23T12:44:41.687Z,41.93
2018-07-23T12:45:41.724Z,42.13
2018-07-23T12:46:41.763Z,41.53
2018-07-23T12:47:41.801Z,41.83
2018-07-23T12:48:41.855Z,41.83
2018-07-23T12:49:41.897Z,41.93
2018-07-23T12:50:41.935Z,41.91
2018-07-23T12:51:41.970Z,41.91
2018-07-23T12:52:42.026Z,42.40
2018-07-23T12:53:42.057Z,41.83